Time;durP1;ratioP1;P1;durP2;ratioP2;P2;SDS_P1;SDS_P2;PMS_P1;PMS_P2;Temp;Humidity;BMP_temperature;BMP_pressure;BME280_temperature;BME280_humidity;BME280_pressure;Samples;Min_cycle;Max_cycle;Signal;HPM_P1;HPM_P2
2024/01/18 00:00:04;;;;;;;;;;;;;;;-0.19;100.00;99413.84;5074807;28;20239;-74
2024/01/18 00:02:29;;;;;;;;;;;;;;;-0.23;100.00;99417.38;5087157;28;20114;-74
2024/01/18 00:04:54;;;;;;;;;;;;;;;-0.30;100.00;99410.66;5094766;28;19927;-74
2024/01/18 00:07:22;;;;;;;;;;;;;;;-0.34;100.00;99412.44;5095485;28;20258;-74
2024/01/18 00:09:47;;;;;;;;;;;;;;;-0.32;100.00;99420.13;5095802;28;19919;-74
2024/01/18 00:12:12;;;;;;;;;;;;;;;-0.33;100.00;99424.41;5087477;28;20128;-74
2024/01/18 00:14:37;;;;;;;;;;;;;;;-0.31;100.00;99429.53;5075515;28;19916;-73
2024/01/18 00:17:02;;;;;;;;;;;;;;;-0.31;100.00;99432.97;5089732;28;19921;-73
2024/01/18 00:19:28;;;;;;;;;;;;;;;-0.29;100.00;99432.91;5079405;28;19997;-73
2024/01/18 00:21:54;;;;;;;;;;;;;;;-0.30;100.00;99439.78;5090900;28;19920;-74
2024/01/18 00:24:19;;;;;;;;;;;;;;;-0.30;100.00;99447.50;5093322;28;19923;-73
2024/01/18 00:26:44;;;;;;;;;;;;;;;-0.30;100.00;99449.25;5095611;28;19919;-74
2024/01/18 00:29:09;;;;;;;;;;;;;;;-0.31;100.00;99456.13;5093339;28;19927;-73
2024/01/18 00:31:34;;;;;;;;;;;;;;;-0.32;100.00;99456.13;5096294;28;19920;-73
2024/01/18 00:34:00;;;;;;;;;;;;;;;-0.35;100.00;99461.34;5095869;28;19924;-73
2024/01/18 00:36:25;;;;;;;;;;;;;;;-0.40;100.00;99471.69;5097398;28;19920;-73
2024/01/18 00:38:50;;;;;;;;;;;;;;;-0.43;100.00;99459.75;5082291;28;19927;-73
2024/01/18 00:41:16;;;;;;;;;;;;;;;-0.43;100.00;99459.75;5083877;28;20219;-73
2024/01/18 00:43:41;;;;;;;;;;;;;;;-0.47;100.00;99457.28;5095066;28;19989;-73
2024/01/18 00:46:06;;;;;;;;;;;;;;;-0.54;100.00;99465.97;5096636;28;19969;-73
2024/01/18 00:48:32;;;;;;;;;;;;;;;-0.59;100.00;99459.16;5086185;28;19924;-73
2024/01/18 00:50:57;;;;;;;;;;;;;;;-0.64;100.00;99470.41;5082051;28;19926;-73
2024/01/18 00:53:22;;;;;;;;;;;;;;;-0.65;100.00;99473.88;5096085;28;19916;-73
2024/01/18 00:55:47;;;;;;;;;;;;;;;-0.69;100.00;99475.63;5096170;28;20123;-73
2024/01/18 00:58:13;;;;;;;;;;;;;;;-0.73;100.00;99481.69;5088954;28;20109;-73
2024/01/18 01:00:38;;;;;;;;;;;;;;;-0.78;100.00;99478.34;5078298;28;20234;-73
2024/01/18 01:03:04;;;;;;;;;;;;;;;-0.81;100.00;99478.41;5091369;28;20173;-73
2024/01/18 01:05:29;;;;;;;;;;;;;;;-0.84;100.00;99484.41;5091201;28;19916;-73
2024/01/18 01:07:54;;;;;;;;;;;;;;;-0.87;100.00;99486.22;5093733;28;19920;-73
2024/01/18 01:10:20;;;;;;;;;;;;;;;-0.93;100.00;99484.56;5096458;28;20006;-73
2024/01/18 01:12:45;;;;;;;;;;;;;;;-0.98;100.00;99489.78;5096454;28;19928;-73
2024/01/18 01:15:10;;;;;;;;;;;;;;;-1.05;100.00;99485.63;5095330;28;19926;-73
2024/01/18 01:17:35;;;;;;;;;;;;;;;-1.10;100.00;99492.53;5095074;28;19944;-73
2024/01/18 01:20:01;;;;;;;;;;;;;;;-1.13;100.00;99489.16;5095213;28;19983;-73
2024/01/18 01:22:26;;;;;;;;;;;;;;;-1.14;100.00;99490.91;5096506;28;19920;-73
2024/01/18 01:24:52;;;;;;;;;;;;;;;-1.16;100.00;99492.63;5094767;28;20108;-73
2024/01/18 01:27:17;;;;;;;;;;;;;;;-1.19;100.00;99502.94;5094664;28;19907;-73
2024/01/18 01:29:42;;;;;;;;;;;;;;;-1.27;100.00;99497.09;5087662;28;19958;-73
2024/01/18 01:32:08;;;;;;;;;;;;;;;-1.33;100.00;99495.41;5095646;28;19908;-73
2024/01/18 01:34:33;;;;;;;;;;;;;;;-1.34;100.00;99496.31;5092508;28;19920;-73
2024/01/18 01:36:58;;;;;;;;;;;;;;;-1.40;100.00;99496.38;5095448;28;19996;-73
2024/01/18 01:39:23;;;;;;;;;;;;;;;-1.46;100.00;99510.16;5095224;28;20107;-73
2024/01/18 01:41:48;;;;;;;;;;;;;;;-1.50;100.00;99505.94;5095956;28;20222;-73
2024/01/18 01:44:14;;;;;;;;;;;;;;;-1.52;100.00;99501.69;5094350;28;20196;-73
2024/01/18 01:46:39;;;;;;;;;;;;;;;-1.54;100.00;99504.28;5075951;28;19915;-73
2024/01/18 01:49:05;;;;;;;;;;;;;;;-1.57;100.00;99504.31;5090288;28;19947;-73
2024/01/18 01:51:32;;;;;;;;;;;;;;;-1.63;100.00;99507.81;5094820;28;19951;-73
2024/01/18 01:53:57;;;;;;;;;;;;;;;-1.65;100.00;99511.25;5093992;28;20166;-73
2024/01/18 01:56:23;;;;;;;;;;;;;;;-1.69;100.00;99513.03;5078073;28;20006;-73
2024/01/18 01:58:49;;;;;;;;;;;;;;;-1.71;100.00;99513.88;5086023;28;19912;-73
2024/01/18 02:01:15;;;;;;;;;;;;;;;-1.75;100.00;99513.06;5088473;28;19916;-75
2024/01/18 02:03:40;;;;;;;;;;;;;;;-1.78;100.00;99523.41;5085988;28;20115;-73
2024/01/18 02:06:05;;;;;;;;;;;;;;;-1.83;100.00;99531.13;5094387;28;19912;-73
2024/01/18 02:08:31;;;;;;;;;;;;;;;-1.90;100.00;99532.06;5095348;28;19912;-73
2024/01/18 02:10:56;;;;;;;;;;;;;;;-2.05;100.00;99547.63;5084265;28;20234;-73
2024/01/18 02:13:22;;;;;;;;;;;;;;;-2.07;100.00;99555.34;5081154;28;19920;-73
2024/01/18 02:15:47;;;;;;;;;;;;;;;-2.02;100.00;99551.03;5087762;28;19931;-73
2024/01/18 02:18:12;;;;;;;;;;;;;;;-1.82;100.00;99557.63;5082998;28;19923;-73
2024/01/18 02:20:37;;;;;;;;;;;;;;;-1.68;100.00;99566.03;5090264;28;19924;-73
2024/01/18 02:23:05;;;;;;;;;;;;;;;-1.59;100.00;99565.09;5074569;28;19916;-73
2024/01/18 02:25:30;;;;;;;;;;;;;;;-1.52;100.00;99558.19;5094078;28;19912;-73
2024/01/18 02:27:56;;;;;;;;;;;;;;;-1.42;100.00;99562.31;5094879;28;19958;-73
2024/01/18 02:30:21;;;;;;;;;;;;;;;-1.37;100.00;99550.28;5094703;28;20112;-73
2024/01/18 02:32:46;;;;;;;;;;;;;;;-1.28;100.00;99551.88;5078262;28;19912;-73
2024/01/18 02:35:12;;;;;;;;;;;;;;;-1.22;100.00;99547.53;5094521;28;19920;-73
2024/01/18 02:37:37;;;;;;;;;;;;;;;-1.18;100.00;99545.78;5095145;28;19920;-73
2024/01/18 02:40:03;;;;;;;;;;;;;;;-1.11;100.00;99546.50;5094202;28;19999;-73
2024/01/18 02:42:28;;;;;;;;;;;;;;;-1.11;100.00;99542.25;5094959;28;19920;-73
2024/01/18 02:44:55;;;;;;;;;;;;;;;-1.09;100.00;99539.63;5093134;28;19920;-73
2024/01/18 02:47:23;;;;;;;;;;;;;;;-1.10;100.00;99545.66;5088999;28;19912;-73
2024/01/18 02:49:49;;;;;;;;;;;;;;;-1.15;100.00;99540.56;5095188;28;20046;-73
2024/01/18 02:52:14;;;;;;;;;;;;;;;-1.16;100.00;99544.88;5092938;28;19920;-73
2024/01/18 02:54:39;;;;;;;;;;;;;;;-1.20;100.00;99552.63;5094969;28;20119;-73
2024/01/18 02:57:04;;;;;;;;;;;;;;;-1.21;100.00;99545.81;5088088;28;20245;-73
2024/01/18 02:59:29;;;;;;;;;;;;;;;-1.24;100.00;99541.53;5079780;28;20112;-73
2024/01/18 03:01:55;;;;;;;;;;;;;;;-1.25;100.00;99547.56;5083417;28;20220;-73
2024/01/18 03:04:20;;;;;;;;;;;;;;;-1.29;100.00;99551.03;5093202;28;20130;-73
2024/01/18 03:06:45;;;;;;;;;;;;;;;-1.30;100.00;99548.50;5096391;28;19951;-73
2024/01/18 03:09:12;;;;;;;;;;;;;;;-1.31;100.00;99559.63;5079825;28;20089;-73
2024/01/18 03:11:37;;;;;;;;;;;;;;;-1.33;100.00;99556.22;5097993;28;19920;-73
2024/01/18 03:14:03;;;;;;;;;;;;;;;-1.38;100.00;99554.56;5097711;28;19920;-73
2024/01/18 03:16:28;;;;;;;;;;;;;;;-1.43;100.00;99561.47;5098177;28;20018;-73
2024/01/18 03:18:53;;;;;;;;;;;;;;;-1.51;100.00;99565.00;5082559;28;19944;-73
2024/01/18 03:21:18;;;;;;;;;;;;;;;-1.55;100.00;99571.88;5091021;28;20080;-73
2024/01/18 03:23:44;;;;;;;;;;;;;;;-1.64;100.00;99569.44;5084616;28;19927;-73
2024/01/18 03:26:09;;;;;;;;;;;;;;;-1.74;100.00;99573.81;5095404;28;19920;-73
2024/01/18 03:28:34;;;;;;;;;;;;;;;-1.84;100.00;99572.22;5097256;28;19928;-73
2024/01/18 03:30:59;;;;;;;;;;;;;;;-1.88;100.00;99571.38;5091836;28;19921;-73
2024/01/18 03:33:25;;;;;;;;;;;;;;;-1.89;100.00;99574.84;5084895;28;19927;-73
2024/01/18 03:35:50;;;;;;;;;;;;;;;-1.91;100.00;99580.84;5095815;28;19920;-73
2024/01/18 03:38:15;;;;;;;;;;;;;;;-1.98;100.00;99577.50;5084021;28;19955;-73
2024/01/18 03:40:40;;;;;;;;;;;;;;;-2.05;100.00;99583.56;5088785;28;19924;-73
2024/01/18 03:43:06;;;;;;;;;;;;;;;-2.13;100.00;99579.34;5096848;28;19937;-73
2024/01/18 03:45:31;;;;;;;;;;;;;;;-2.18;100.00;99581.09;5097874;28;20002;-73
2024/01/18 03:47:56;;;;;;;;;;;;;;;-2.23;100.00;99566.59;5097262;28;20100;-73
2024/01/18 03:50:22;;;;;;;;;;;;;;;-2.29;100.00;99571.78;5087441;28;19920;-73
2024/01/18 03:52:47;;;;;;;;;;;;;;;-2.36;100.00;99573.56;5097747;28;19939;-75
2024/01/18 03:55:12;;;;;;;;;;;;;;;-2.44;100.00;99578.72;5089102;28;20219;-76
2024/01/18 03:57:39;;;;;;;;;;;;;;;-2.48;100.00;99578.78;5086009;28;19919;-75
2024/01/18 04:00:05;;;;;;;;;;;;;;;-2.55;100.00;99585.66;5084220;28;19924;-75
2024/01/18 04:02:30;;;;;;;;;;;;;;;-2.57;100.00;99583.09;5096709;28;19931;-75
2024/01/18 04:04:55;;;;;;;;;;;;;;;-2.60;100.00;99584.84;5096421;28;19919;-75
2024/01/18 04:07:22;;;;;;;;;;;;;;;-2.62;100.00;99591.69;5097592;28;19920;-75
2024/01/18 04:09:47;;;;;;;;;;;;;;;-2.67;100.00;99601.13;5090100;28;19971;-75
2024/01/18 04:12:12;;;;;;;;;;;;;;;-2.69;100.00;99596.03;5097133;28;20102;-75
2024/01/18 04:14:40;;;;;;;;;;;;;;;-2.67;100.00;99596.84;5096713;28;19920;-76
2024/01/18 04:17:05;;;;;;;;;;;;;;;-2.69;100.00;99601.16;5095863;28;19939;-75
2024/01/18 04:19:31;;;;;;;;;;;;;;;-2.71;100.00;99600.28;5093869;28;19920;-75
2024/01/18 04:21:56;;;;;;;;;;;;;;;-2.69;100.00;99603.72;5095745;28;19920;-75
2024/01/18 04:24:22;;;;;;;;;;;;;;;-2.70;100.00;99600.28;5094841;28;19920;-75
2024/01/18 04:26:49;;;;;;;;;;;;;;;-2.71;100.00;99603.72;5092481;28;19948;-75
2024/01/18 04:29:14;;;;;;;;;;;;;;;-2.73;100.00;99605.44;5096954;28;19954;-75
2024/01/18 04:31:39;;;;;;;;;;;;;;;-2.74;100.00;99608.00;5095241;28;20128;-76
2024/01/18 04:34:05;;;;;;;;;;;;;;;-2.76;100.00;99610.56;5096500;28;19953;-75
2024/01/18 04:36:30;;;;;;;;;;;;;;;-2.77;100.00;99608.88;5092424;28;19927;-75
2024/01/18 04:38:55;;;;;;;;;;;;;;;-2.79;100.00;99622.56;5094393;28;19959;-75
2024/01/18 04:41:20;;;;;;;;;;;;;;;-2.80;100.00;99620.84;5096490;28;19926;-75
2024/01/18 04:43:46;;;;;;;;;;;;;;;-2.82;100.00;99635.38;5095803;28;19963;-75
2024/01/18 04:46:11;;;;;;;;;;;;;;;-2.86;100.00;99642.22;5096215;28;19920;-75
2024/01/18 04:48:36;;;;;;;;;;;;;;;-2.87;100.00;99635.41;5096435;28;19916;-75
2024/01/18 04:51:02;;;;;;;;;;;;;;;-2.88;100.00;99633.69;5095989;28;19947;-75
2024/01/18 04:53:28;;;;;;;;;;;;;;;-2.92;100.00;99632.03;5095905;28;19920;-75
2024/01/18 04:55:53;;;;;;;;;;;;;;;-2.94;100.00;99629.47;5095662;28;19951;-75
2024/01/18 04:58:18;;;;;;;;;;;;;;;-2.94;100.00;99623.50;5095778;28;19912;-75
2024/01/18 05:00:44;;;;;;;;;;;;;;;-2.96;100.00;99631.19;5092447;28;20081;-75
2024/01/18 05:03:09;;;;;;;;;;;;;;;-3.03;100.00;99639.75;5090075;28;19924;-75
2024/01/18 05:05:36;;;;;;;;;;;;;;;-3.06;100.00;99631.25;5096093;28;19938;-75
2024/01/18 05:08:01;;;;;;;;;;;;;;;-3.08;100.00;99644.03;5095821;28;20013;-75
2024/01/18 05:10:27;;;;;;;;;;;;;;;-3.11;100.00;99638.94;5097039;28;20211;-75
2024/01/18 05:12:52;;;;;;;;;;;;;;;-3.12;100.00;99635.53;5077565;28;19926;-75
2024/01/18 05:15:18;;;;;;;;;;;;;;;-3.12;100.00;99648.31;5085715;28;19978;-75
2024/01/18 05:17:46;;;;;;;;;;;;;;;-3.16;100.00;99651.75;5094479;28;19958;-75
2024/01/18 05:20:12;;;;;;;;;;;;;;;-3.16;100.00;99659.44;5094810;28;20030;-75
2024/01/18 05:22:37;;;;;;;;;;;;;;;-3.18;100.00;99660.31;5095148;28;20132;-75
2024/01/18 05:25:03;;;;;;;;;;;;;;;-3.21;100.00;99661.16;5095596;28;19943;-75
2024/01/18 05:27:29;;;;;;;;;;;;;;;-3.24;100.00;99666.28;5089402;28;19928;-75
2024/01/18 05:29:55;;;;;;;;;;;;;;;-3.24;100.00;99673.13;5074772;28;20116;-75
2024/01/18 05:32:20;;;;;;;;;;;;;;;-3.28;100.00;99677.41;5090801;28;19927;-75
2024/01/18 05:34:46;;;;;;;;;;;;;;;-3.29;100.00;99684.25;5095365;28;20096;-75
2024/01/18 05:37:11;;;;;;;;;;;;;;;-3.28;100.00;99679.97;5096930;28;19948;-75
2024/01/18 05:39:36;;;;;;;;;;;;;;;-3.25;100.00;99679.13;5081892;28;20258;-75
2024/01/18 05:42:02;;;;;;;;;;;;;;;-3.24;100.00;99684.22;5103483;28;19927;-75
2024/01/18 05:44:28;;;;;;;;;;;;;;;-3.30;100.00;99687.66;5095629;28;19947;-75
2024/01/18 05:46:53;;;;;;;;;;;;;;;-3.34;100.00;99696.22;5094433;28;19920;-75
2024/01/18 05:49:19;;;;;;;;;;;;;;;-3.34;100.00;99687.69;5094924;28;19927;-75
2024/01/18 05:51:44;;;;;;;;;;;;;;;-3.34;100.00;99693.66;5099638;28;19927;-75
2024/01/18 05:54:09;;;;;;;;;;;;;;;-3.30;100.00;99691.94;5096904;28;19919;-75
2024/01/18 05:56:34;;;;;;;;;;;;;;;-3.28;100.00;99696.19;5095445;28;19990;-75
2024/01/18 05:58:59;;;;;;;;;;;;;;;-3.23;100.00;99708.13;5092014;28;19927;-75
2024/01/18 06:01:25;;;;;;;;;;;;;;;-3.20;100.00;99708.09;5098853;28;19924;-75
2024/01/18 06:03:50;;;;;;;;;;;;;;;-3.18;100.00;99711.53;5102085;28;19943;-75
2024/01/18 06:06:15;;;;;;;;;;;;;;;-3.19;100.00;99704.72;5095651;28;19912;-75
2024/01/18 06:08:40;;;;;;;;;;;;;;;-3.18;100.00;99711.53;5084317;28;19919;-75
2024/01/18 06:11:06;;;;;;;;;;;;;;;-3.19;100.00;99709.81;5082134;28;19981;-75
2024/01/18 06:13:31;;;;;;;;;;;;;;;-3.20;100.00;99715.78;5086931;28;19918;-75
2024/01/18 06:15:57;;;;;;;;;;;;;;;-3.22;100.00;99713.25;5073663;28;20177;-75
2024/01/18 06:18:22;;;;;;;;;;;;;;;-3.23;100.00;99721.78;5088159;28;19920;-75
2024/01/18 06:20:49;;;;;;;;;;;;;;;-3.26;100.00;99726.91;5085319;28;20235;-75
2024/01/18 06:23:14;;;;;;;;;;;;;;;-3.31;100.00;99726.94;5105927;28;19928;-75
2024/01/18 06:25:39;;;;;;;;;;;;;;;-3.35;100.00;99735.44;5074918;28;19917;-75
2024/01/18 06:28:05;;;;;;;;;;;;;;;-3.37;100.00;99731.19;5090329;28;19926;-75
2024/01/18 06:30:30;;;;;;;;;;;;;;;-3.39;100.00;99733.75;5074601;28;19917;-75
2024/01/18 06:32:55;;;;;;;;;;;;;;;-3.40;100.00;99738.88;5084313;28;20219;-75
2024/01/18 06:35:22;;;;;;;;;;;;;;;-3.46;100.00;99742.31;5094168;28;19947;-75
2024/01/18 06:37:47;;;;;;;;;;;;;;;-3.41;100.00;99750.84;5104225;28;19919;-75
2024/01/18 06:40:13;;;;;;;;;;;;;;;-3.38;100.00;99747.44;5097768;28;20106;-75
2024/01/18 06:42:38;;;;;;;;;;;;;;;-3.33;100.00;99746.56;5098992;28;20153;-75
2024/01/18 06:45:04;;;;;;;;;;;;;;;-3.30;100.00;99751.66;5085571;28;19987;-75
2024/01/18 06:47:29;;;;;;;;;;;;;;;-3.26;100.00;99749.94;5082275;28;19920;-75
2024/01/18 06:49:54;;;;;;;;;;;;;;;-3.23;100.00;99755.06;5098232;28;19947;-75
2024/01/18 06:52:20;;;;;;;;;;;;;;;-3.25;100.00;99767.03;5099232;28;19924;-75
2024/01/18 06:54:45;;;;;;;;;;;;;;;-3.26;100.00;99773.00;5091228;28;19961;-75
2024/01/18 06:57:10;;;;;;;;;;;;;;;-3.29;100.00;99776.44;5079299;28;20246;-75
2024/01/18 06:59:36;;;;;;;;;;;;;;;-3.31;100.00;99775.59;5094440;28;20220;-76
2024/01/18 07:02:02;;;;;;;;;;;;;;;-3.33;100.00;99776.41;5077976;28;19968;-75
2024/01/18 07:04:27;;;;;;;;;;;;;;;-3.34;100.00;99787.53;5092023;28;20138;-75
2024/01/18 07:06:53;;;;;;;;;;;;;;;-3.35;100.00;99780.69;5098280;28;19920;-75
2024/01/18 07:09:18;;;;;;;;;;;;;;;-3.36;100.00;99797.78;5097372;28;19945;-75
2024/01/18 07:11:43;;;;;;;;;;;;;;;-3.51;100.00;99805.44;5087788;28;19962;-75
2024/01/18 07:14:08;;;;;;;;;;;;;;;-3.46;100.00;99808.84;5098129;28;19916;-75
2024/01/18 07:16:34;;;;;;;;;;;;;;;-3.38;100.00;99808.88;5099639;28;19930;-76
2024/01/18 07:18:59;;;;;;;;;;;;;;;-3.30;100.00;99802.88;5109105;28;19954;-75
2024/01/18 07:21:25;;;;;;;;;;;;;;;-3.26;100.00;99808.84;5099640;28;19946;-75
2024/01/18 07:23:50;;;;;;;;;;;;;;;-3.26;100.00;99810.56;5109761;28;20525;-75
2024/01/18 07:26:15;;;;;;;;;;;;;;;-3.28;100.00;99808.84;5098103;28;19920;-75
2024/01/18 07:28:40;;;;;;;;;;;;;;;-3.25;100.00;99805.44;5098630;28;20016;-75
2024/01/18 07:31:06;;;;;;;;;;;;;;;-3.23;100.00;99820.81;5094720;28;19920;-75
2024/01/18 07:33:31;;;;;;;;;;;;;;;-3.30;100.00;99818.25;5109909;28;19916;-75
2024/01/18 07:35:57;;;;;;;;;;;;;;;-3.35;100.00;99824.22;5096671;28;19927;-75
2024/01/18 07:38:22;;;;;;;;;;;;;;;-3.38;100.00;99825.09;5096534;28;20216;-75
2024/01/18 07:40:48;;;;;;;;;;;;;;;-3.39;100.00;99828.50;5095124;28;19960;-75
2024/01/18 07:43:13;;;;;;;;;;;;;;;-3.42;100.00;99836.19;5093150;28;20103;-75
2024/01/18 07:45:38;;;;;;;;;;;;;;;-3.46;100.00;99839.56;5090342;28;19995;-75
2024/01/18 07:48:07;;;;;;;;;;;;;;;-3.52;100.00;99840.44;5098649;28;20226;-75
2024/01/18 07:50:32;;;;;;;;;;;;;;;-3.55;100.00;99842.13;5100001;28;19961;-75
2024/01/18 07:52:57;;;;;;;;;;;;;;;-3.56;100.00;99848.13;5096463;28;19916;-75
2024/01/18 07:55:24;;;;;;;;;;;;;;;-3.55;100.00;99842.13;5096228;28;20107;-75
2024/01/18 07:57:50;;;;;;;;;;;;;;;-3.54;100.00;99849.81;5088803;28;19943;-75
2024/01/18 08:00:15;;;;;;;;;;;;;;;-3.55;100.00;99852.38;5099205;28;19931;-75
2024/01/18 08:02:40;;;;;;;;;;;;;;;-3.57;100.00;99854.94;5089154;28;19924;-75
2024/01/18 08:05:06;;;;;;;;;;;;;;;-3.58;100.00;99852.38;5097154;28;20078;-75
2024/01/18 08:07:31;;;;;;;;;;;;;;;-3.59;100.00;99861.75;5098739;28;19944;-75
2024/01/18 08:09:56;;;;;;;;;;;;;;;-3.60;100.00;99865.19;5095751;28;19927;-75
2024/01/18 08:12:21;;;;;;;;;;;;;;;-3.59;100.00;99863.47;5095324;28;19924;-75
2024/01/18 08:14:47;;;;;;;;;;;;;;;-3.63;100.00;99870.28;5091367;28;19927;-75
2024/01/18 08:17:12;;;;;;;;;;;;;;;-3.64;100.00;99872.84;5093160;28;19927;-75
2024/01/18 08:19:38;;;;;;;;;;;;;;;-3.63;100.00;99879.69;5094195;28;20122;-75
2024/01/18 08:22:03;;;;;;;;;;;;;;;-3.65;100.00;99900.16;5089919;28;19920;-75
2024/01/18 08:24:29;;;;;;;;;;;;;;;-3.67;100.00;99897.56;5088586;28;20272;-75
2024/01/18 08:26:54;;;;;;;;;;;;;;;-3.65;100.00;99895.03;5090939;28;19912;-75
2024/01/18 08:29:19;;;;;;;;;;;;;;;-3.64;100.00;99896.72;5091234;28;19990;-75
2024/01/18 08:31:44;;;;;;;;;;;;;;;-3.65;100.00;99902.72;5089124;28;19916;-75
2024/01/18 08:34:10;;;;;;;;;;;;;;;-3.61;100.00;99917.22;5086554;28;20198;-75
2024/01/18 08:36:36;;;;;;;;;;;;;;;-3.56;100.00;99917.22;5094810;28;19927;-75
2024/01/18 08:39:01;;;;;;;;;;;;;;;-3.57;100.00;99924.03;5095449;28;19920;-75
2024/01/18 08:41:26;;;;;;;;;;;;;;;-3.55;100.00;99922.31;5091728;28;19928;-75
2024/01/18 08:43:52;;;;;;;;;;;;;;;-3.54;100.00;99929.16;5089548;28;19923;-75
2024/01/18 08:46:17;;;;;;;;;;;;;;;-3.51;100.00;99928.31;5093319;28;20267;-75
2024/01/18 08:48:42;;;;;;;;;;;;;;;-3.47;100.00;99933.44;5092666;28;20225;-75
2024/01/18 08:51:13;;;;;;;;;;;;;;;-3.40;100.00;99931.78;5087944;28;20156;-74
2024/01/18 08:53:38;;;;;;;;;;;;;;;-3.33;100.00;99936.06;5088080;28;20146;-75
2024/01/18 08:56:03;;;;;;;;;;;;;;;-3.23;100.00;99948.88;5090255;28;19924;-75
2024/01/18 08:58:29;;;;;;;;;;;;;;;-3.14;100.00;99946.31;5091718;28;19920;-75
2024/01/18 09:00:54;;;;;;;;;;;;;;;-3.05;100.00;99958.28;5089666;28;19928;-75
2024/01/18 09:03:19;;;;;;;;;;;;;;;-2.94;100.00;99956.56;5092171;28;19922;-75
2024/01/18 09:05:44;;;;;;;;;;;;;;;-2.84;100.00;99963.38;5093296;28;19947;-75
2024/01/18 09:08:10;;;;;;;;;;;;;;;-2.73;100.00;99959.13;5092550;28;19923;-75
2024/01/18 09:10:36;;;;;;;;;;;;;;;-2.65;100.00;99955.72;5093196;28;19920;-75
2024/01/18 09:13:01;;;;;;;;;;;;;;;-2.56;100.00;99956.53;5088089;28;19919;-75
2024/01/18 09:15:26;;;;;;;;;;;;;;;-2.48;100.00;99965.94;5091391;28;20208;-75
2024/01/18 09:17:52;;;;;;;;;;;;;;;-2.42;100.00;99965.91;5091988;28;19953;-75
2024/01/18 09:20:17;;;;;;;;;;;;;;;-2.35;100.00;99970.19;5090185;28;19973;-75
2024/01/18 09:22:42;;;;;;;;;;;;;;;-2.27;100.00;99972.72;5093228;28;20018;-75
2024/01/18 09:25:08;;;;;;;;;;;;;;;-2.18;100.00;99991.53;5092045;28;20239;-75
2024/01/18 09:27:33;;;;;;;;;;;;;;;-2.07;100.00;99998.31;5093224;28;19920;-75
2024/01/18 09:29:58;;;;;;;;;;;;;;;-1.95;100.00;100006.88;5092457;28;19927;-75
2024/01/18 09:32:25;;;;;;;;;;;;;;;-1.80;100.00;100029.06;5092824;28;19982;-75
2024/01/18 09:34:50;;;;;;;;;;;;;;;-1.53;100.00;100052.91;5091066;28;19920;-75
2024/01/18 09:37:17;;;;;;;;;;;;;;;-1.33;100.00;100052.00;5090990;28;19943;-75
2024/01/18 09:39:44;;;;;;;;;;;;;;;-1.21;100.00;100065.63;5091518;28;19920;-75
2024/01/18 09:42:13;;;;;;;;;;;;;;;-1.16;100.00;100069.03;5091451;28;20185;-75
2024/01/18 09:44:39;;;;;;;;;;;;;;;-1.14;100.00;100074.16;5091816;28;20150;-75
2024/01/18 09:47:05;;;;;;;;;;;;;;;-1.16;100.00;100074.16;5092312;28;20045;-75
2024/01/18 09:49:33;;;;;;;;;;;;;;;-1.12;100.00;100072.44;5091001;28;20222;-75
2024/01/18 09:51:59;;;;;;;;;;;;;;;-1.09;100.00;100075.00;5094816;28;20012;-75
2024/01/18 09:54:24;;;;;;;;;;;;;;;-1.09;100.00;100077.56;5095629;28;19924;-75
2024/01/18 09:56:52;;;;;;;;;;;;;;;-1.07;100.00;100078.41;5089646;28;20200;-75
2024/01/18 09:59:18;;;;;;;;;;;;;;;-1.07;100.00;100075.00;5094126;28;19916;-75
2024/01/18 10:01:43;;;;;;;;;;;;;;;-1.08;100.00;100079.28;5092191;28;19924;-75
2024/01/18 10:04:12;;;;;;;;;;;;;;;-1.07;100.00;100082.72;5092335;28;19970;-75
2024/01/18 10:06:40;;;;;;;;;;;;;;;-1.08;100.00;100089.53;5089689;28;19920;-76
2024/01/18 10:09:07;;;;;;;;;;;;;;;-1.08;100.00;100098.97;5091636;28;19916;-75
2024/01/18 10:11:32;;;;;;;;;;;;;;;-1.09;100.00;100095.56;5092602;28;19916;-76
2024/01/18 10:13:59;;;;;;;;;;;;;;;-1.08;100.00;100106.69;5089265;28;20168;-75
2024/01/18 10:16:28;;;;;;;;;;;;;;;-1.08;100.00;100109.25;5091260;28;19924;-76
2024/01/18 10:18:57;;;;;;;;;;;;;;;-1.05;100.00;100112.66;5090363;28;19921;-76
2024/01/18 10:21:23;;;;;;;;;;;;;;;-1.00;100.00;100117.78;5091093;28;19959;-76
2024/01/18 10:23:49;;;;;;;;;;;;;;;-0.94;100.00;100125.47;5091122;28;19912;-76
2024/01/18 10:26:15;;;;;;;;;;;;;;;-0.91;100.00;100122.91;5091855;28;19927;-76
2024/01/18 10:28:41;;;;;;;;;;;;;;;-0.85;100.00;100125.41;5089264;28;20234;-76
2024/01/18 10:31:07;;;;;;;;;;;;;;;-0.82;100.00;100127.09;5088203;28;19948;-76
2024/01/18 10:33:32;;;;;;;;;;;;;;;-0.77;100.00;100133.09;5092301;28;20196;-76
2024/01/18 10:35:57;;;;;;;;;;;;;;;-0.71;100.00;100135.63;5091823;28;19950;-76
2024/01/18 10:38:29;;;;;;;;;;;;;;;-0.68;100.00;100138.16;5092167;28;19983;-76
2024/01/18 10:40:57;;;;;;;;;;;;;;;-0.60;100.00;100141.56;5090927;28;19979;-76
2024/01/18 10:43:22;;;;;;;;;;;;;;;-0.53;100.00;100141.53;5090911;28;19957;-76
2024/01/18 10:45:47;;;;;;;;;;;;;;;-0.46;100.00;100143.19;5094141;28;19919;-76
2024/01/18 10:48:13;;;;;;;;;;;;;;;-0.40;100.00;100145.72;5095319;28;20242;-76
2024/01/18 10:50:38;;;;;;;;;;;;;;;-0.35;100.00;100151.69;5091902;28;20321;-76
2024/01/18 10:53:04;;;;;;;;;;;;;;;-0.31;100.00;100149.94;5090477;28;20392;-76
2024/01/18 10:55:30;;;;;;;;;;;;;;;-0.29;100.00;100161.94;5092914;28;19920;-76
2024/01/18 10:57:55;;;;;;;;;;;;;;;-0.22;100.00;100165.31;5091727;28;19934;-76
2024/01/18 11:00:21;;;;;;;;;;;;;;;-0.15;100.00;100160.97;5091967;28;20116;-76
2024/01/18 11:02:46;;;;;;;;;;;;;;;-0.09;100.00;100173.78;5089310;28;19947;-76
2024/01/18 11:05:17;;;;;;;;;;;;;;;-0.02;100.00;100168.59;5092496;28;19919;-76
2024/01/18 11:07:42;;;;;;;;;;;;;;;0.07;100.00;100166.81;5093842;28;19926;-76
2024/01/18 11:10:10;;;;;;;;;;;;;;;0.14;100.00;100168.47;5095641;28;19939;-76
2024/01/18 11:12:37;;;;;;;;;;;;;;;0.25;100.00;100178.69;5093893;28;19931;-76
2024/01/18 11:15:03;;;;;;;;;;;;;;;0.34;100.00;100184.59;5089274;28;19920;-76
2024/01/18 11:17:29;;;;;;;;;;;;;;;0.48;100.00;100192.19;5094069;28;20203;-76
2024/01/18 11:20:00;;;;;;;;;;;;;;;0.62;100.00;100194.66;5090385;28;19928;-76
2024/01/18 11:22:26;;;;;;;;;;;;;;;0.79;100.00;100194.47;5093761;28;19951;-76
2024/01/18 11:24:51;;;;;;;;;;;;;;;0.98;100.00;100196.84;5091943;28;19924;-76
2024/01/18 11:27:21;;;;;;;;;;;;;;;1.16;100.00;100196.59;5093422;28;19920;-76
2024/01/18 11:29:47;;;;;;;;;;;;;;;1.29;100.00;100197.31;5092603;28;19930;-75
2024/01/18 11:32:14;;;;;;;;;;;;;;;1.37;100.00;100207.56;5100280;28;20259;-76
2024/01/18 11:34:40;;;;;;;;;;;;;;;1.44;100.00;100212.59;5096271;28;19916;-76
2024/01/18 11:37:08;;;;;;;;;;;;;;;1.32;100.00;100235.97;5090716;28;20259;-76
2024/01/18 11:39:48;;;;;;;;;;;;;;;1.13;100.00;100245.66;5092836;28;19955;-76
2024/01/18 11:42:24;;;;;;;;;;;;;;;0.83;100.00;100239.94;5092497;28;19951;-76
2024/01/18 11:44:50;;;;;;;;;;;;;;;0.61;100.00;100241.88;5095012;28;19924;-76
2024/01/18 11:47:16;;;;;;;;;;;;;;;0.53;100.00;100231.66;5091546;28;19958;-76
2024/01/18 11:49:43;;;;;;;;;;;;;;;0.49;100.00;100245.44;5095844;28;19920;-76
2024/01/18 11:52:09;;;;;;;;;;;;;;;0.45;100.00;100248.91;5095944;28;20200;-76
2024/01/18 11:54:35;;;;;;;;;;;;;;;0.43;100.00;100254.94;5092749;28;19923;-76
2024/01/18 11:57:02;;;;;;;;;;;;;;;0.41;100.00;100254.09;5095794;28;19958;-76
2024/01/18 11:59:30;;;;;;;;;;;;;;;0.42;100.00;100254.09;5093014;28;19920;-76
2024/01/18 12:01:55;;;;;;;;;;;;;;;0.41;100.00;100259.25;5093514;28;20227;-76
2024/01/18 12:04:20;;;;;;;;;;;;;;;0.41;100.00;100261.84;5094035;28;19927;-76
2024/01/18 12:06:45;;;;;;;;;;;;;;;0.42;100.00;100264.41;5088056;28;19913;-76
2024/01/18 12:09:11;;;;;;;;;;;;;;;0.45;100.00;100260.94;5093203;28;20226;-76
2024/01/18 12:11:36;;;;;;;;;;;;;;;0.48;100.00;100268.66;5093786;28;19924;-76
2024/01/18 12:14:01;;;;;;;;;;;;;;;0.52;100.00;100278.06;5092241;28;19927;-76
2024/01/18 12:16:26;;;;;;;;;;;;;;;0.54;100.00;100273.75;5094201;28;19995;-76
2024/01/18 12:18:53;;;;;;;;;;;;;;;0.59;100.00;100284.88;5093862;28;19920;-76
2024/01/18 12:21:18;;;;;;;;;;;;;;;0.66;100.00;100290.84;5093886;28;20529;-76
2024/01/18 12:23:44;;;;;;;;;;;;;;;0.71;100.00;100289.03;5094842;28;20112;-76
2024/01/18 12:26:10;;;;;;;;;;;;;;;0.75;100.00;100290.75;5091936;28;19919;-76